createdAt,value
2018-07-22T00:00:08.046Z,99.90
2018-07-22T00:02:36.498Z,99.90
2018-07-22T00:05:04.953Z,99.90
2018-07-22T00:07:33.325Z,99.90
2018-07-22T00:10:01.649Z,99.90
2018-07-22T00:12:29.980Z,99.90
2018-07-22T00:14:58.338Z,99.90
2018-07-22T00:17:26.659Z,99.90
2018-07-22T00:19:55.059Z,99.90
2018-07-22T00:22:23.380Z,99.90
2018-07-22T00:24:51.751Z,99.90
2018-07-22T00:27:20.026Z,99.90
2018-07-22T00:29:48.368Z,99.90
2018-07-22T00:32:16.679Z,99.90
2018-07-22T00:34:45.004Z,99.90
2018-07-22T00:37:13.423Z,99.90
2018-07-22T00:39:41.752Z,99.90
2018-07-22T00:42:10.103Z,99.90
2018-07-22T00:44:38.420Z,99.90
2018-07-22T00:47:06.759Z,99.90
2018-07-22T00:49:35.091Z,99.90
2018-07-22T00:52:03.405Z,99.90
2018-07-22T00:54:31.704Z,99.90
2018-07-22T00:57:00.007Z,99.90
2018-07-22T00:59:28.318Z,99.90
2018-07-22T01:01:56.721Z,99.90
2018-07-22T01:06:53.055Z,99.90
2018-07-22T01:09:21.461Z,99.90
2018-07-22T01:11:49.853Z,99.90
2018-07-22T01:14:18.171Z,99.90
2018-07-22T01:16:46.498Z,99.90
2018-07-22T01:19:14.791Z,99.90
2018-07-22T01:21:43.139Z,99.90
2018-07-22T01:24:11.450Z,99.90
2018-07-22T01:26:40.847Z,99.90
2018-07-22T01:29:09.124Z,99.90
2018-07-22T01:31:37.490Z,99.90
2018-07-22T01:34:05.781Z,99.90
2018-07-22T01:36:34.112Z,99.90
2018-07-22T01:39:02.406Z,99.90
2018-07-22T01:41:30.751Z,99.90
2018-07-22T01:43:59.051Z,99.90
2018-07-22T01:46:27.350Z,99.90
2018-07-22T01:48:55.695Z,99.90
2018-07-22T01:51:24.061Z,99.90
2018-07-22T01:53:52.396Z,99.90
2018-07-22T01:56:20.703Z,99.90
2018-07-22T01:58:48.996Z,99.90
2018-07-22T02:01:17.321Z,99.90
2018-07-22T02:03:45.775Z,99.90
2018-07-22T02:06:14.100Z,99.90
2018-07-22T02:08:42.397Z,99.90
2018-07-22T02:11:10.714Z,99.90
2018-07-22T02:13:39.049Z,99.90
2018-07-22T02:16:07.385Z,99.90
2018-07-22T02:18:35.729Z,99.90
2018-07-22T02:21:04.115Z,99.90
2018-07-22T02:23:32.402Z,99.90
2018-07-22T02:26:00.701Z,99.90
2018-07-22T02:28:29.089Z,99.90
2018-07-22T02:30:57.404Z,99.90
2018-07-22T02:33:25.721Z,99.90
2018-07-22T02:35:54.098Z,99.90
2018-07-22T02:38:22.384Z,99.90
2018-07-22T02:40:50.931Z,99.90
2018-07-22T02:43:19.251Z,99.90
2018-07-22T02:45:47.557Z,99.90
2018-07-22T02:48:15.904Z,99.90
2018-07-22T02:50:44.297Z,99.90
2018-07-22T02:53:12.633Z,99.90
2018-07-22T02:55:40.939Z,99.90
2018-07-22T02:58:09.266Z,99.90
2018-07-22T03:00:37.570Z,99.90
2018-07-22T03:03:05.963Z,99.90
2018-07-22T03:05:34.331Z,99.90
2018-07-22T03:08:02.696Z,99.90
2018-07-22T03:10:30.967Z,99.90
2018-07-22T03:12:59.291Z,99.90
2018-07-22T03:15:27.659Z,99.90
2018-07-22T03:17:56.000Z,99.90
2018-07-22T03:20:24.447Z,99.90
2018-07-22T03:25:21.074Z,99.90
2018-07-22T03:27:49.440Z,99.90
2018-07-22T03:30:17.757Z,99.90
2018-07-22T03:32:46.194Z,99.90
2018-07-22T03:35:14.480Z,99.90
2018-07-22T03:37:42.778Z,99.90
2018-07-22T03:40:11.098Z,99.90
2018-07-22T03:42:39.397Z,99.90
2018-07-22T03:45:07.770Z,99.90
2018-07-22T03:47:36.104Z,99.90
2018-07-22T03:50:04.632Z,99.90
2018-07-22T03:52:32.999Z,99.90
2018-07-22T03:55:01.286Z,99.90
2018-07-22T03:57:29.604Z,99.90
2018-07-22T03:59:58.013Z,99.90
2018-07-22T04:02:26.322Z,99.90
2018-07-22T04:04:54.679Z,99.90
2018-07-22T04:07:23.001Z,99.90
2018-07-22T04:09:51.331Z,99.90
2018-07-22T04:12:19.651Z,99.90
2018-07-22T04:14:48.020Z,99.90
2018-07-22T04:17:16.376Z,99.90
2018-07-22T04:19:44.775Z,99.90
2018-07-22T04:22:13.084Z,99.90
2018-07-22T04:24:41.419Z,99.90
2018-07-22T04:27:09.762Z,99.90
2018-07-22T04:29:38.131Z,99.90
2018-07-22T04:32:06.499Z,99.90
2018-07-22T04:34:34.805Z,99.90
2018-07-22T04:37:03.133Z,99.90
2018-07-22T04:39:31.560Z,99.90
2018-07-22T04:41:59.898Z,99.90
2018-07-22T04:44:28.332Z,99.90
2018-07-22T04:46:56.682Z,99.90
2018-07-22T04:49:25.065Z,99.90
2018-07-22T04:51:53.383Z,99.90
2018-07-22T04:54:21.698Z,99.90
2018-07-22T04:56:50.020Z,99.90
2018-07-22T04:59:18.453Z,99.90
2018-07-22T05:01:46.742Z,99.90
2018-07-22T05:04:15.140Z,99.90
2018-07-22T05:06:43.649Z,99.90
2018-07-22T05:09:13.044Z,99.90
2018-07-22T05:11:41.716Z,99.90
2018-07-22T05:14:10.073Z,99.90
2018-07-22T05:16:38.394Z,99.90
2018-07-22T05:19:07.218Z,99.90
2018-07-22T05:24:03.634Z,99.90
2018-07-22T05:26:31.967Z,99.90
2018-07-22T05:29:00.284Z,99.90
2018-07-22T05:31:28.590Z,99.90
2018-07-22T05:33:56.890Z,99.90
2018-07-22T05:36:25.217Z,99.90
2018-07-22T05:38:53.510Z,99.90
2018-07-22T05:41:21.824Z,99.90
2018-07-22T05:43:50.226Z,99.90
2018-07-22T05:46:18.756Z,99.90
2018-07-22T05:48:47.308Z,99.90
2018-07-22T05:51:15.617Z,99.90
2018-07-22T05:53:43.955Z,99.90
2018-07-22T05:56:12.348Z,99.90
2018-07-22T05:58:41.469Z,99.90
2018-07-22T06:03:37.893Z,99.90
2018-07-22T06:06:06.387Z,99.90
2018-07-22T06:08:34.752Z,99.90
2018-07-22T06:11:03.189Z,99.90
2018-07-22T06:13:31.605Z,99.90
2018-07-22T06:15:59.907Z,99.90
2018-07-22T06:18:28.230Z,99.90
2018-07-22T06:20:56.583Z,99.90
2018-07-22T06:23:24.944Z,99.90
2018-07-22T06:25:53.205Z,99.90
2018-07-22T06:30:50.689Z,99.90
2018-07-22T06:33:19.908Z,99.90
2018-07-22T06:35:48.334Z,99.90
2018-07-22T06:38:16.760Z,99.90
2018-07-22T06:40:45.323Z,99.90
2018-07-22T06:43:13.639Z,99.90
2018-07-22T06:45:41.959Z,99.90
2018-07-22T06:48:10.309Z,99.90
2018-07-22T06:53:13.442Z,99.90
2018-07-22T06:55:41.844Z,99.90
2018-07-22T07:00:38.224Z,99.90
2018-07-22T07:03:06.550Z,99.90
2018-07-22T07:05:34.870Z,99.90
2018-07-22T07:08:03.315Z,99.90
2018-07-22T07:10:31.646Z,99.90
2018-07-22T07:13:00.019Z,99.90
2018-07-22T07:15:28.326Z,99.90
2018-07-22T07:17:56.635Z,99.90
2018-07-22T07:22:53.064Z,99.90
2018-07-22T07:25:21.369Z,99.90
2018-07-22T07:27:49.802Z,99.90
2018-07-22T07:30:18.143Z,99.90
2018-07-22T07:32:46.655Z,99.90
2018-07-22T07:35:14.983Z,99.90
2018-07-22T07:40:11.376Z,99.90
2018-07-22T07:42:39.643Z,99.90
2018-07-22T07:45:07.933Z,99.90
2018-07-22T07:47:36.244Z,99.90
2018-07-22T07:50:04.554Z,99.90
2018-07-22T07:52:32.851Z,99.90
2018-07-22T07:55:01.195Z,99.90
2018-07-22T07:57:29.456Z,99.90
2018-07-22T07:59:57.749Z,99.90
2018-07-22T08:02:26.570Z,99.90
2018-07-22T08:04:55.254Z,99.90
2018-07-22T08:07:23.553Z,99.90
2018-07-22T08:09:51.840Z,99.90
2018-07-22T08:12:20.139Z,99.90
2018-07-22T08:14:48.454Z,99.90
2018-07-22T08:17:16.774Z,99.90
2018-07-22T08:19:45.065Z,99.90
2018-07-22T08:22:13.406Z,99.90
2018-07-22T08:24:41.702Z,99.90
2018-07-22T08:27:10.287Z,99.90
2018-07-22T08:29:38.624Z,99.90
2018-07-22T08:32:07.308Z,99.90
2018-07-22T08:34:35.683Z,99.90
2018-07-22T08:37:03.986Z,99.90
2018-07-22T08:39:32.990Z,99.90
2018-07-22T08:42:01.637Z,99.90
2018-07-22T08:44:29.943Z,99.90
2018-07-22T08:46:58.222Z,99.90
2018-07-22T08:49:26.518Z,99.90
2018-07-22T08:51:54.880Z,99.90
2018-07-22T08:54:23.199Z,99.90
2018-07-22T08:56:51.509Z,99.90
2018-07-22T08:59:20.298Z,99.90
2018-07-22T09:01:48.656Z,99.90
2018-07-22T09:04:16.975Z,99.90
2018-07-22T09:06:45.279Z,99.90
2018-07-22T09:09:13.614Z,99.90
2018-07-22T09:11:41.924Z,99.90
2018-07-22T09:14:10.712Z,99.90
2018-07-22T09:16:39.012Z,99.90
2018-07-22T09:19:07.468Z,99.90
2018-07-22T09:21:36.003Z,99.90
2018-07-22T09:24:04.385Z,99.90
2018-07-22T09:26:32.671Z,99.90
2018-07-22T09:29:00.994Z,99.90
2018-07-22T09:31:29.388Z,99.90
2018-07-22T09:33:57.750Z,99.90
2018-07-22T09:36:26.635Z,99.90
2018-07-22T09:38:54.949Z,99.90
2018-07-22T09:41:23.375Z,99.90
2018-07-22T09:43:51.661Z,99.90
2018-07-22T09:46:19.988Z,99.90
2018-07-22T09:48:48.321Z,99.90
2018-07-22T09:51:16.608Z,99.90
2018-07-22T09:53:45.063Z,99.90
2018-07-22T09:56:13.384Z,99.90
2018-07-22T09:58:41.850Z,99.90
2018-07-22T10:01:10.123Z,99.90
2018-07-22T10:03:38.417Z,99.90
2018-07-22T10:06:06.733Z,99.90
2018-07-22T10:08:35.065Z,99.90
2018-07-22T10:11:03.391Z,99.90
2018-07-22T10:13:31.703Z,99.90
2018-07-22T10:16:00.007Z,99.90
2018-07-22T10:18:28.315Z,99.90
2018-07-22T10:20:56.632Z,99.90
2018-07-22T10:23:24.921Z,99.90
2018-07-22T10:25:53.235Z,99.90
2018-07-22T10:28:21.517Z,99.90
2018-07-22T10:30:49.812Z,99.90
2018-07-22T10:35:46.245Z,99.90
2018-07-22T10:38:14.488Z,99.90
2018-07-22T10:40:42.907Z,99.90
2018-07-22T10:43:11.271Z,99.90
2018-07-22T10:45:39.611Z,99.90
2018-07-22T10:48:07.906Z,99.90
2018-07-22T10:50:36.197Z,99.90
2018-07-22T10:53:04.528Z,99.90
2018-07-22T10:55:32.808Z,99.90
2018-07-22T10:58:01.117Z,99.90
2018-07-22T11:00:29.412Z,99.90
2018-07-22T11:02:57.690Z,99.90
2018-07-22T11:05:25.992Z,99.90
2018-07-22T11:07:54.327Z,99.90
2018-07-22T11:10:22.627Z,99.90
2018-07-22T11:12:50.929Z,99.90
2018-07-22T11:15:19.231Z,99.90
2018-07-22T11:17:47.503Z,99.90
2018-07-22T11:20:15.799Z,99.90
2018-07-22T11:22:44.093Z,99.90
2018-07-22T11:25:12.399Z,99.90
2018-07-22T11:30:08.751Z,99.90
2018-07-22T11:32:37.027Z,99.90
2018-07-22T11:35:05.346Z,99.90
2018-07-22T11:37:33.655Z,99.90
2018-07-22T11:40:01.926Z,99.90
2018-07-22T11:42:30.257Z,99.90
2018-07-22T11:44:58.579Z,99.90
2018-07-22T11:47:26.895Z,99.90
2018-07-22T11:49:55.252Z,99.90
2018-07-22T11:52:23.562Z,99.90
2018-07-22T11:54:51.943Z,99.90
2018-07-22T11:57:20.417Z,99.90
2018-07-22T11:59:48.760Z,99.90
2018-07-22T12:02:17.051Z,99.90
2018-07-22T12:04:45.309Z,99.90
2018-07-22T12:07:13.607Z,99.90
2018-07-22T12:09:41.888Z,99.90
2018-07-22T12:12:10.348Z,99.90
2018-07-22T12:14:38.661Z,99.90
2018-07-22T12:17:06.935Z,99.90
2018-07-22T12:19:35.239Z,99.90
2018-07-22T12:22:03.527Z,99.90
2018-07-22T12:24:31.816Z,99.90
2018-07-22T12:27:00.125Z,99.90
2018-07-22T12:29:28.420Z,99.90
2018-07-22T12:31:56.747Z,99.90
2018-07-22T12:34:25.059Z,99.90
2018-07-22T12:36:53.337Z,99.90
2018-07-22T12:39:21.636Z,99.90
2018-07-22T12:41:50.039Z,99.90
2018-07-22T12:44:18.334Z,99.90
2018-07-22T12:46:46.642Z,99.90
2018-07-22T12:49:14.915Z,99.90
2018-07-22T12:51:43.191Z,99.90
2018-07-22T12:54:11.483Z,99.90
2018-07-22T12:56:39.805Z,99.90
2018-07-22T12:59:08.126Z,99.90
2018-07-22T13:08:23.193Z,99.90
2018-07-22T13:10:51.504Z,99.90
2018-07-22T13:13:19.799Z,99.90
2018-07-22T13:15:48.083Z,99.90
2018-07-22T13:18:16.357Z,99.90
2018-07-22T13:20:44.691Z,99.90
2018-07-22T13:23:13.001Z,99.90
2018-07-22T13:25:41.261Z,99.90
2018-07-22T13:28:09.558Z,99.90
2018-07-22T13:30:37.841Z,99.90
2018-07-22T13:33:06.213Z,99.90
2018-07-22T13:35:34.525Z,99.90
2018-07-22T13:38:02.917Z,99.90
2018-07-22T13:40:31.243Z,99.90
2018-07-22T13:42:59.716Z,99.90
2018-07-22T13:45:28.086Z,99.90
2018-07-22T13:47:56.335Z,99.90
2018-07-22T13:50:24.613Z,99.90
2018-07-22T13:52:52.990Z,99.90
2018-07-22T13:55:21.286Z,99.90
2018-07-22T13:57:49.566Z,99.90
2018-07-22T14:00:18.117Z,99.90
2018-07-22T14:02:46.428Z,99.90
2018-07-22T14:05:14.716Z,99.90
2018-07-22T14:07:43.011Z,99.90
2018-07-22T14:10:11.359Z,99.90
2018-07-22T14:12:39.661Z,99.90
2018-07-22T14:15:08.024Z,99.90
2018-07-22T14:17:36.568Z,99.90
2018-07-22T14:20:05.393Z,99.90
2018-07-22T14:22:33.680Z,99.90
2018-07-22T14:25:02.037Z,99.90
2018-07-22T14:27:30.277Z,99.90
2018-07-22T14:29:58.683Z,99.90
2018-07-22T14:32:27.007Z,99.90
2018-07-22T14:34:55.373Z,99.90
2018-07-22T14:37:23.682Z,99.90
2018-07-22T14:39:52.012Z,99.90
2018-07-22T14:42:20.419Z,99.90
2018-07-22T14:44:48.718Z,99.90
2018-07-22T14:47:17.101Z,99.90
2018-07-22T14:49:45.365Z,99.90
2018-07-22T14:52:13.659Z,99.90
2018-07-22T14:54:41.975Z,99.90
2018-07-22T14:57:10.278Z,99.90
2018-07-22T14:59:38.564Z,99.90
2018-07-22T15:02:07.037Z,99.90
2018-07-22T15:04:35.352Z,99.90
2018-07-22T15:07:04.140Z,99.90
2018-07-22T15:09:32.444Z,99.90
2018-07-22T15:12:00.863Z,99.90
2018-07-22T15:14:29.170Z,99.90
2018-07-22T15:16:57.492Z,99.90
2018-07-22T15:19:25.845Z,99.90
2018-07-22T15:21:54.241Z,99.90
2018-07-22T15:24:22.753Z,99.90
2018-07-22T15:26:51.151Z,99.90
2018-07-22T15:29:19.565Z,99.90
2018-07-22T15:31:47.800Z,99.90
2018-07-22T15:34:16.134Z,99.90
2018-07-22T15:36:44.469Z,99.90
2018-07-22T15:39:13.322Z,99.90
2018-07-22T15:41:41.593Z,99.90
2018-07-22T15:44:09.937Z,99.00
2018-07-22T15:46:38.443Z,99.90
2018-07-22T15:49:07.787Z,95.60
2018-07-22T15:51:36.415Z,94.50
2018-07-22T15:54:04.777Z,95.40
2018-07-22T15:56:33.151Z,96.80
2018-07-22T15:59:01.473Z,97.30
2018-07-22T16:01:29.827Z,97.50
2018-07-22T16:03:58.181Z,98.70
2018-07-22T16:06:26.577Z,98.40
2018-07-22T16:08:54.852Z,99.90
2018-07-22T16:11:24.943Z,99.90
2018-07-22T16:13:53.280Z,99.90
2018-07-22T16:16:21.550Z,99.90
2018-07-22T16:18:49.822Z,99.90
2018-07-22T16:21:18.177Z,99.90
2018-07-22T16:23:46.535Z,99.90
2018-07-22T16:26:14.850Z,99.90
2018-07-22T16:28:43.133Z,99.90
2018-07-22T16:31:11.415Z,99.90
2018-07-22T16:33:39.747Z,99.90
2018-07-22T16:36:08.063Z,99.90
2018-07-22T16:38:36.385Z,99.90
2018-07-22T16:41:04.654Z,99.90
2018-07-22T16:43:32.927Z,99.90
2018-07-22T16:46:01.228Z,99.90
2018-07-22T16:48:29.518Z,99.90
2018-07-22T16:50:57.855Z,99.90
2018-07-22T16:53:26.196Z,99.90
2018-07-22T16:55:54.478Z,99.90
2018-07-22T16:58:22.861Z,99.90
2018-07-22T17:00:51.172Z,99.90
2018-07-22T17:03:19.451Z,99.90
2018-07-22T17:05:47.759Z,99.90
2018-07-22T17:08:16.039Z,99.90
2018-07-22T17:10:44.349Z,99.90
2018-07-22T17:17:49.087Z,99.90
2018-07-22T17:20:17.383Z,99.90
2018-07-22T17:22:45.699Z,99.90
2018-07-22T17:25:14.000Z,99.90
2018-07-22T17:27:42.373Z,99.90
2018-07-22T17:30:11.189Z,99.90
2018-07-22T17:32:39.467Z,99.90
2018-07-22T17:35:07.863Z,99.90
2018-07-22T17:37:36.165Z,99.90
2018-07-22T17:40:05.385Z,99.90
2018-07-22T17:42:33.774Z,99.90
2018-07-22T17:45:02.099Z,99.90
2018-07-22T17:47:30.845Z,99.90
2018-07-22T17:49:59.488Z,99.90
2018-07-22T17:52:28.217Z,99.90
2018-07-22T17:54:56.644Z,99.90
2018-07-22T17:57:24.942Z,99.90
2018-07-22T17:59:53.243Z,99.90
2018-07-22T18:02:21.601Z,99.90
2018-07-22T18:04:50.010Z,99.90
2018-07-22T18:07:18.295Z,99.90
2018-07-22T18:09:46.621Z,99.90
2018-07-22T18:12:15.086Z,99.90
2018-07-22T18:14:43.349Z,99.90
2018-07-22T18:17:11.767Z,99.90
2018-07-22T18:19:40.080Z,99.90
2018-07-22T18:22:08.413Z,99.90
2018-07-22T18:24:36.677Z,99.90
2018-07-22T18:27:05.145Z,99.90
2018-07-22T18:32:01.599Z,99.90
2018-07-22T18:34:29.896Z,99.90
2018-07-22T18:36:58.243Z,99.90
2018-07-22T18:39:26.470Z,99.90
2018-07-22T18:41:54.841Z,99.90
2018-07-22T18:44:23.130Z,99.90
2018-07-22T18:46:52.962Z,99.90
2018-07-22T18:49:21.291Z,99.90
2018-07-22T18:51:49.569Z,99.90
2018-07-22T18:54:17.897Z,99.90
2018-07-22T18:56:46.219Z,99.90
2018-07-22T19:01:42.574Z,99.90
2018-07-22T19:04:10.889Z,99.90
2018-07-22T19:06:39.178Z,99.90
2018-07-22T19:09:09.227Z,99.90
2018-07-22T19:11:37.469Z,99.90
2018-07-22T19:14:05.816Z,99.90
2018-07-22T19:16:34.147Z,99.90
2018-07-22T19:19:02.457Z,99.90
2018-07-22T19:21:30.810Z,99.90
2018-07-22T19:23:59.159Z,99.90
2018-07-22T19:26:27.567Z,99.90
2018-07-22T19:28:55.944Z,99.90
2018-07-22T19:31:24.258Z,99.90
2018-07-22T19:33:52.667Z,99.90
2018-07-22T19:36:21.971Z,99.90
2018-07-22T19:38:50.241Z,99.90
2018-07-22T19:41:18.550Z,99.90
2018-07-22T19:43:46.871Z,99.90
2018-07-22T19:46:15.180Z,99.90
2018-07-22T19:48:43.447Z,99.90
2018-07-22T19:51:11.872Z,99.90
2018-07-22T19:53:40.174Z,99.90
2018-07-22T19:56:08.466Z,99.90
2018-07-22T19:58:36.740Z,99.90
2018-07-22T20:01:05.035Z,99.90
2018-07-22T20:03:33.368Z,99.90
2018-07-22T20:10:57.890Z,99.90
2018-07-22T20:13:26.207Z,99.90
2018-07-22T20:15:54.599Z,99.90
2018-07-22T20:18:22.920Z,99.90
2018-07-22T20:20:51.169Z,99.90
2018-07-22T20:23:19.469Z,99.90
2018-07-22T20:25:47.805Z,99.90
2018-07-22T20:28:16.083Z,99.90
2018-07-22T20:30:44.381Z,99.90
2018-07-22T20:33:12.676Z,99.90
2018-07-22T20:35:40.968Z,99.90
2018-07-22T20:38:09.352Z,99.90
2018-07-22T20:40:37.621Z,99.90
2018-07-22T20:43:05.952Z,99.90
2018-07-22T20:45:34.242Z,99.90
2018-07-22T20:48:02.537Z,99.90
2018-07-22T20:50:30.841Z,99.90
2018-07-22T20:52:59.115Z,99.90
2018-07-22T20:55:27.415Z,99.90
2018-07-22T20:57:55.821Z,99.90
2018-07-22T21:00:24.105Z,99.90
2018-07-22T21:04:21.594Z,99.90
2018-07-22T21:06:49.868Z,99.90
2018-07-22T21:09:18.165Z,99.90
2018-07-22T21:13:02.310Z,99.90
2018-07-22T21:15:30.613Z,99.90
2018-07-22T21:17:58.904Z,99.90
2018-07-22T21:20:27.177Z,99.90
2018-07-22T21:22:55.484Z,99.90
2018-07-22T21:25:23.816Z,99.90
2018-07-22T21:27:52.167Z,99.90
2018-07-22T21:30:20.478Z,99.90
2018-07-22T21:32:48.737Z,99.90
2018-07-22T21:35:17.010Z,99.90
2018-07-22T21:37:45.318Z,99.90
2018-07-22T21:40:13.628Z,99.90
2018-07-22T21:42:41.903Z,99.90
2018-07-22T21:45:10.310Z,99.90
2018-07-22T21:47:38.565Z,99.90
2018-07-22T21:50:07.536Z,99.90
2018-07-22T21:52:35.822Z,99.90
2018-07-22T21:55:04.286Z,99.90
2018-07-22T21:57:32.586Z,99.90
2018-07-22T22:00:00.863Z,99.90
2018-07-22T22:02:34.345Z,99.90
2018-07-22T22:05:04.406Z,99.90
2018-07-22T22:07:33.216Z,99.90
2018-07-22T22:10:01.699Z,99.90
2018-07-22T22:12:30.089Z,99.90
2018-07-22T22:14:58.411Z,99.90
2018-07-22T22:17:26.741Z,99.90
2018-07-22T22:19:55.039Z,99.90
2018-07-22T22:22:23.292Z,99.90
2018-07-22T22:24:51.619Z,99.90
2018-07-22T22:27:19.919Z,99.90
2018-07-22T22:29:48.235Z,99.90
2018-07-22T22:32:16.566Z,99.90
2018-07-22T22:34:44.884Z,99.90
2018-07-22T22:37:13.163Z,99.90
2018-07-22T22:39:41.478Z,99.90
2018-07-22T22:42:09.748Z,99.90
2018-07-22T22:44:38.027Z,99.90
2018-07-22T22:47:06.348Z,99.90
2018-07-22T22:49:34.615Z,99.90
2018-07-22T22:52:02.902Z,99.90
2018-07-22T22:54:31.257Z,99.90
2018-07-22T22:56:59.556Z,99.90
2018-07-22T22:59:27.834Z,99.90
2018-07-22T23:01:56.189Z,99.90
2018-07-22T23:04:24.486Z,99.90
2018-07-22T23:06:52.750Z,99.90
2018-07-22T23:09:21.017Z,99.90
2018-07-22T23:11:49.282Z,99.90
2018-07-22T23:14:17.568Z,99.90
2018-07-22T23:16:45.880Z,99.90
2018-07-22T23:19:14.202Z,99.90
2018-07-22T23:21:42.512Z,99.90
2018-07-22T23:24:10.808Z,99.90
2018-07-22T23:26:39.137Z,99.90
2018-07-22T23:29:07.417Z,99.90
2018-07-22T23:31:35.714Z,99.90
2018-07-22T23:34:04.003Z,99.90
2018-07-22T23:36:32.345Z,99.90
2018-07-22T23:39:00.717Z,99.90
2018-07-22T23:41:29.027Z,99.90
2018-07-22T23:43:57.431Z,99.90
2018-07-22T23:46:25.714Z,99.90
2018-07-22T23:48:53.989Z,99.90
2018-07-22T23:51:22.260Z,99.90
2018-07-22T23:53:50.537Z,99.90
2018-07-22T23:56:18.812Z,99.90
2018-07-22T23:58:47.122Z,99.90
